sensor_id;sensor_type;location;lat;lon;timestamp;P1;durP1;ratioP1;P2;durP2;ratioP2
32236;SDS011;18726;44.732;10.550;2023-05-07T00:00:16;23.63;;;20.65;;
32236;SDS011;18726;44.732;10.550;2023-05-07T00:03:21;22.95;;;20.60;;
32236;SDS011;18726;44.732;10.550;2023-05-07T00:06:25;20.27;;;18.38;;
32236;SDS011;18726;44.732;10.550;2023-05-07T00:09:29;21.80;;;19.58;;
32236;SDS011;18726;44.732;10.550;2023-05-07T00:12:33;28.10;;;23.83;;
32236;SDS011;18726;44.732;10.550;2023-05-07T00:15:37;16.75;;;15.10;;
32236;SDS011;18726;44.732;10.550;2023-05-07T00:18:40;29.60;;;25.92;;
32236;SDS011;18726;44.732;10.550;2023-05-07T00:21:44;21.05;;;19.05;;
32236;SDS011;18726;44.732;10.550;2023-05-07T00:24:48;28.65;;;25.75;;
32236;SDS011;18726;44.732;10.550;2023-05-07T00:27:51;20.13;;;18.15;;
32236;SDS011;18726;44.732;10.550;2023-05-07T00:30:54;28.35;;;23.70;;
32236;SDS011;18726;44.732;10.550;2023-05-07T00:33:58;23.33;;;20.77;;
32236;SDS011;18726;44.732;10.550;2023-05-07T00:37:02;28.58;;;25.50;;
32236;SDS011;18726;44.732;10.550;2023-05-07T00:40:06;20.02;;;17.73;;
32236;SDS011;18726;44.732;10.550;2023-05-07T00:43:11;22.90;;;20.70;;
32236;SDS011;18726;44.732;10.550;2023-05-07T00:46:16;26.25;;;20.10;;
32236;SDS011;18726;44.732;10.550;2023-05-07T00:49:19;27.70;;;24.92;;
32236;SDS011;18726;44.732;10.550;2023-05-07T00:52:23;21.65;;;19.55;;
32236;SDS011;18726;44.732;10.550;2023-05-07T00:55:29;23.48;;;20.70;;
32236;SDS011;18726;44.732;10.550;2023-05-07T00:58:33;20.05;;;18.15;;
32236;SDS011;18726;44.732;10.550;2023-05-07T01:01:37;20.75;;;17.98;;
32236;SDS011;18726;44.732;10.550;2023-05-07T01:04:41;22.98;;;20.55;;
32236;SDS011;18726;44.732;10.550;2023-05-07T01:07:45;20.42;;;18.35;;
32236;SDS011;18726;44.732;10.550;2023-05-07T01:10:49;21.95;;;19.55;;
32236;SDS011;18726;44.732;10.550;2023-05-07T01:13:54;19.52;;;17.48;;
32236;SDS011;18726;44.732;10.550;2023-05-07T01:16:59;25.23;;;22.77;;
32236;SDS011;18726;44.732;10.550;2023-05-07T01:20:06;27.35;;;23.75;;
32236;SDS011;18726;44.732;10.550;2023-05-07T01:23:11;26.17;;;22.05;;
32236;SDS011;18726;44.732;10.550;2023-05-07T01:26:15;23.83;;;21.33;;
32236;SDS011;18726;44.732;10.550;2023-05-07T01:29:22;22.73;;;19.67;;
32236;SDS011;18726;44.732;10.550;2023-05-07T01:32:48;24.77;;;22.30;;
32236;SDS011;18726;44.732;10.550;2023-05-07T01:35:55;18.20;;;16.42;;
32236;SDS011;18726;44.732;10.550;2023-05-07T01:38:59;27.80;;;20.83;;
32236;SDS011;18726;44.732;10.550;2023-05-07T01:42:02;22.92;;;20.83;;
32236;SDS011;18726;44.732;10.550;2023-05-07T01:45:07;20.02;;;17.92;;
32236;SDS011;18726;44.732;10.550;2023-05-07T01:48:11;26.85;;;21.83;;
32236;SDS011;18726;44.732;10.550;2023-05-07T01:51:16;20.45;;;18.35;;
32236;SDS011;18726;44.732;10.550;2023-05-07T01:54:24;23.98;;;21.55;;
32236;SDS011;18726;44.732;10.550;2023-05-07T01:57:31;19.85;;;16.08;;
32236;SDS011;18726;44.732;10.550;2023-05-07T02:00:35;19.02;;;17.02;;
32236;SDS011;18726;44.732;10.550;2023-05-07T02:03:39;19.70;;;17.70;;
32236;SDS011;18726;44.732;10.550;2023-05-07T02:06:49;21.38;;;19.13;;
32236;SDS011;18726;44.732;10.550;2023-05-07T02:09:53;25.10;;;19.27;;
32236;SDS011;18726;44.732;10.550;2023-05-07T02:12:59;19.95;;;17.92;;
32236;SDS011;18726;44.732;10.550;2023-05-07T02:16:05;28.50;;;25.58;;
32236;SDS011;18726;44.732;10.550;2023-05-07T02:19:09;28.30;;;24.13;;
32236;SDS011;18726;44.732;10.550;2023-05-07T02:22:13;23.98;;;21.48;;
32236;SDS011;18726;44.732;10.550;2023-05-07T02:25:17;19.63;;;17.73;;
32236;SDS011;18726;44.732;10.550;2023-05-07T02:28:21;24.83;;;22.17;;
32236;SDS011;18726;44.732;10.550;2023-05-07T02:31:43;24.05;;;21.73;;
32236;SDS011;18726;44.732;10.550;2023-05-07T02:34:50;21.55;;;19.42;;
32236;SDS011;18726;44.732;10.550;2023-05-07T02:37:54;23.50;;;21.20;;
32236;SDS011;18726;44.732;10.550;2023-05-07T02:40:59;20.30;;;18.30;;
32236;SDS011;18726;44.732;10.550;2023-05-07T02:44:03;29.85;;;26.42;;
32236;SDS011;18726;44.732;10.550;2023-05-07T02:47:06;27.45;;;24.67;;
32236;SDS011;18726;44.732;10.550;2023-05-07T02:50:12;17.05;;;15.43;;
32236;SDS011;18726;44.732;10.550;2023-05-07T02:53:17;18.08;;;16.17;;
32236;SDS011;18726;44.732;10.550;2023-05-07T02:56:20;21.33;;;19.23;;
32236;SDS011;18726;44.732;10.550;2023-05-07T02:59:24;23.70;;;21.15;;
32236;SDS011;18726;44.732;10.550;2023-05-07T03:02:29;21.30;;;19.08;;
32236;SDS011;18726;44.732;10.550;2023-05-07T03:05:33;29.70;;;26.50;;
32236;SDS011;18726;44.732;10.550;2023-05-07T03:08:36;27.27;;;24.40;;
32236;SDS011;18726;44.732;10.550;2023-05-07T03:11:39;27.55;;;24.75;;
32236;SDS011;18726;44.732;10.550;2023-05-07T03:14:43;20.90;;;18.70;;
32236;SDS011;18726;44.732;10.550;2023-05-07T03:17:48;22.77;;;20.48;;
32236;SDS011;18726;44.732;10.550;2023-05-07T03:20:52;21.80;;;19.60;;
32236;SDS011;18726;44.732;10.550;2023-05-07T03:23:56;23.00;;;20.70;;
32236;SDS011;18726;44.732;10.550;2023-05-07T03:26:59;22.58;;;20.38;;
32236;SDS011;18726;44.732;10.550;2023-05-07T03:30:05;24.95;;;20.75;;
32236;SDS011;18726;44.732;10.550;2023-05-07T03:33:10;23.48;;;20.95;;
32236;SDS011;18726;44.732;10.550;2023-05-07T03:36:14;24.92;;;22.33;;
32236;SDS011;18726;44.732;10.550;2023-05-07T03:39:17;20.65;;;18.48;;
32236;SDS011;18726;44.732;10.550;2023-05-07T03:42:21;20.67;;;18.58;;
32236;SDS011;18726;44.732;10.550;2023-05-07T03:45:28;21.98;;;19.65;;
32236;SDS011;18726;44.732;10.550;2023-05-07T03:48:47;18.17;;;14.95;;
32236;SDS011;18726;44.732;10.550;2023-05-07T03:51:51;30.33;;;27.15;;
32236;SDS011;18726;44.732;10.550;2023-05-07T03:54:55;33.03;;;29.55;;
32236;SDS011;18726;44.732;10.550;2023-05-07T03:57:59;31.30;;;28.02;;
32236;SDS011;18726;44.732;10.550;2023-05-07T04:01:05;34.35;;;30.80;;
32236;SDS011;18726;44.732;10.550;2023-05-07T04:04:08;24.80;;;22.20;;
32236;SDS011;18726;44.732;10.550;2023-05-07T04:07:14;35.42;;;31.67;;
32236;SDS011;18726;44.732;10.550;2023-05-07T04:10:21;33.40;;;29.83;;
32236;SDS011;18726;44.732;10.550;2023-05-07T04:13:27;24.55;;;21.30;;
32236;SDS011;18726;44.732;10.550;2023-05-07T04:16:34;22.73;;;20.23;;
32236;SDS011;18726;44.732;10.550;2023-05-07T04:19:39;29.83;;;26.73;;
32236;SDS011;18726;44.732;10.550;2023-05-07T04:22:43;22.23;;;19.90;;
32236;SDS011;18726;44.732;10.550;2023-05-07T04:25:47;29.98;;;26.85;;
32236;SDS011;18726;44.732;10.550;2023-05-07T04:29:01;29.10;;;26.25;;
32236;SDS011;18726;44.732;10.550;2023-05-07T04:32:09;27.38;;;24.60;;
32236;SDS011;18726;44.732;10.550;2023-05-07T04:35:14;23.08;;;20.83;;
32236;SDS011;18726;44.732;10.550;2023-05-07T04:38:19;28.13;;;21.08;;
32236;SDS011;18726;44.732;10.550;2023-05-07T04:41:24;30.02;;;23.63;;
32236;SDS011;18726;44.732;10.550;2023-05-07T04:44:28;27.00;;;24.23;;
32236;SDS011;18726;44.732;10.550;2023-05-07T04:47:34;25.20;;;21.70;;
32236;SDS011;18726;44.732;10.550;2023-05-07T04:50:38;23.80;;;21.38;;
32236;SDS011;18726;44.732;10.550;2023-05-07T04:53:43;28.17;;;25.30;;
32236;SDS011;18726;44.732;10.550;2023-05-07T04:56:47;25.10;;;21.40;;
32236;SDS011;18726;44.732;10.550;2023-05-07T04:59:51;27.80;;;23.05;;
32236;SDS011;18726;44.732;10.550;2023-05-07T05:02:55;24.02;;;21.63;;
32236;SDS011;18726;44.732;10.550;2023-05-07T05:05:59;23.42;;;20.95;;
32236;SDS011;18726;44.732;10.550;2023-05-07T05:09:06;20.92;;;18.90;;
32236;SDS011;18726;44.732;10.550;2023-05-07T05:12:11;21.15;;;18.85;;
32236;SDS011;18726;44.732;10.550;2023-05-07T05:15:16;21.65;;;16.38;;
32236;SDS011;18726;44.732;10.550;2023-05-07T05:18:20;17.02;;;15.32;;
32236;SDS011;18726;44.732;10.550;2023-05-07T05:21:24;16.42;;;14.75;;
32236;SDS011;18726;44.732;10.550;2023-05-07T05:24:32;16.27;;;13.30;;
32236;SDS011;18726;44.732;10.550;2023-05-07T05:27:36;14.35;;;12.60;;
32236;SDS011;18726;44.732;10.550;2023-05-07T05:30:42;14.80;;;12.65;;
32236;SDS011;18726;44.732;10.550;2023-05-07T05:33:46;13.35;;;11.85;;
32236;SDS011;18726;44.732;10.550;2023-05-07T05:36:50;11.20;;;10.10;;
32236;SDS011;18726;44.732;10.550;2023-05-07T05:39:54;12.43;;;11.13;;
32236;SDS011;18726;44.732;10.550;2023-05-07T05:42:58;10.82;;;9.80;;
32236;SDS011;18726;44.732;10.550;2023-05-07T05:46:04;20.35;;;9.90;;
32236;SDS011;18726;44.732;10.550;2023-05-07T05:49:08;10.38;;;9.30;;
32236;SDS011;18726;44.732;10.550;2023-05-07T05:52:12;11.77;;;9.15;;
32236;SDS011;18726;44.732;10.550;2023-05-07T05:55:18;9.52;;;8.60;;
32236;SDS011;18726;44.732;10.550;2023-05-07T05:58:22;9.93;;;8.88;;
32236;SDS011;18726;44.732;10.550;2023-05-07T06:01:32;12.77;;;8.50;;
32236;SDS011;18726;44.732;10.550;2023-05-07T06:04:39;9.45;;;8.50;;
32236;SDS011;18726;44.732;10.550;2023-05-07T06:07:42;10.82;;;9.73;;
32236;SDS011;18726;44.732;10.550;2023-05-07T06:10:46;11.98;;;10.73;;
32236;SDS011;18726;44.732;10.550;2023-05-07T06:13:51;16.05;;;12.07;;
32236;SDS011;18726;44.732;10.550;2023-05-07T06:16:54;18.25;;;11.00;;
32236;SDS011;18726;44.732;10.550;2023-05-07T06:19:59;15.80;;;13.48;;
32236;SDS011;18726;44.732;10.550;2023-05-07T06:23:03;14.48;;;12.98;;
32236;SDS011;18726;44.732;10.550;2023-05-07T06:26:09;10.27;;;9.27;;
32236;SDS011;18726;44.732;10.550;2023-05-07T06:29:17;11.10;;;8.88;;
32236;SDS011;18726;44.732;10.550;2023-05-07T06:32:21;11.48;;;10.27;;
32236;SDS011;18726;44.732;10.550;2023-05-07T06:35:25;12.43;;;8.77;;
32236;SDS011;18726;44.732;10.550;2023-05-07T06:38:28;13.68;;;10.00;;
32236;SDS011;18726;44.732;10.550;2023-05-07T06:41:32;12.13;;;10.27;;
32236;SDS011;18726;44.732;10.550;2023-05-07T06:44:43;10.95;;;9.95;;
32236;SDS011;18726;44.732;10.550;2023-05-07T06:47:52;11.95;;;10.75;;
32236;SDS011;18726;44.732;10.550;2023-05-07T06:50:56;15.68;;;12.88;;
32236;SDS011;18726;44.732;10.550;2023-05-07T06:54:01;16.27;;;14.75;;
32236;SDS011;18726;44.732;10.550;2023-05-07T06:57:04;15.80;;;14.15;;
32236;SDS011;18726;44.732;10.550;2023-05-07T07:00:09;22.85;;;15.35;;
32236;SDS011;18726;44.732;10.550;2023-05-07T07:03:22;18.42;;;16.63;;
32236;SDS011;18726;44.732;10.550;2023-05-07T07:06:26;14.35;;;12.95;;
32236;SDS011;18726;44.732;10.550;2023-05-07T07:09:31;18.70;;;16.90;;
32236;SDS011;18726;44.732;10.550;2023-05-07T07:12:37;20.05;;;17.63;;
32236;SDS011;18726;44.732;10.550;2023-05-07T07:15:40;19.63;;;17.58;;
32236;SDS011;18726;44.732;10.550;2023-05-07T07:18:44;18.92;;;16.92;;
32236;SDS011;18726;44.732;10.550;2023-05-07T07:21:48;18.88;;;17.08;;
32236;SDS011;18726;44.732;10.550;2023-05-07T07:24:52;18.92;;;17.13;;
32236;SDS011;18726;44.732;10.550;2023-05-07T07:27:56;18.33;;;16.65;;
32236;SDS011;18726;44.732;10.550;2023-05-07T07:31:01;21.42;;;17.83;;
32236;SDS011;18726;44.732;10.550;2023-05-07T07:34:06;21.05;;;18.67;;
32236;SDS011;18726;44.732;10.550;2023-05-07T07:37:10;17.80;;;16.27;;
32236;SDS011;18726;44.732;10.550;2023-05-07T07:40:14;21.23;;;17.95;;
32236;SDS011;18726;44.732;10.550;2023-05-07T07:43:19;19.60;;;17.50;;
32236;SDS011;18726;44.732;10.550;2023-05-07T07:46:23;19.25;;;17.45;;
32236;SDS011;18726;44.732;10.550;2023-05-07T07:49:27;18.85;;;17.00;;
32236;SDS011;18726;44.732;10.550;2023-05-07T07:52:33;24.92;;;19.20;;
32236;SDS011;18726;44.732;10.550;2023-05-07T07:55:38;21.02;;;18.83;;
32236;SDS011;18726;44.732;10.550;2023-05-07T07:58:43;20.27;;;18.23;;
32236;SDS011;18726;44.732;10.550;2023-05-07T08:01:46;17.83;;;15.75;;
32236;SDS011;18726;44.732;10.550;2023-05-07T08:04:53;16.80;;;15.23;;
32236;SDS011;18726;44.732;10.550;2023-05-07T08:07:57;18.02;;;16.08;;
32236;SDS011;18726;44.732;10.550;2023-05-07T08:11:06;17.70;;;15.93;;
32236;SDS011;18726;44.732;10.550;2023-05-07T08:14:12;17.58;;;14.05;;
32236;SDS011;18726;44.732;10.550;2023-05-07T08:17:16;18.00;;;16.30;;
32236;SDS011;18726;44.732;10.550;2023-05-07T08:20:21;17.27;;;15.50;;
32236;SDS011;18726;44.732;10.550;2023-05-07T08:23:25;17.45;;;15.07;;
32236;SDS011;18726;44.732;10.550;2023-05-07T08:26:28;13.35;;;12.20;;
32236;SDS011;18726;44.732;10.550;2023-05-07T08:29:32;10.65;;;9.65;;
32236;SDS011;18726;44.732;10.550;2023-05-07T08:32:37;10.70;;;9.63;;
32236;SDS011;18726;44.732;10.550;2023-05-07T08:35:41;14.73;;;12.45;;
32236;SDS011;18726;44.732;10.550;2023-05-07T08:38:46;14.77;;;11.13;;
32236;SDS011;18726;44.732;10.550;2023-05-07T08:41:50;13.65;;;11.80;;
32236;SDS011;18726;44.732;10.550;2023-05-07T08:44:59;12.75;;;11.48;;
32236;SDS011;18726;44.732;10.550;2023-05-07T08:48:04;9.75;;;8.75;;
32236;SDS011;18726;44.732;10.550;2023-05-07T08:51:13;15.38;;;8.50;;
32236;SDS011;18726;44.732;10.550;2023-05-07T08:57:50;9.40;;;8.38;;
32236;SDS011;18726;44.732;10.550;2023-05-07T09:00:56;11.25;;;10.15;;
32236;SDS011;18726;44.732;10.550;2023-05-07T09:04:01;14.15;;;12.13;;
32236;SDS011;18726;44.732;10.550;2023-05-07T09:07:07;13.60;;;9.18;;
32236;SDS011;18726;44.732;10.550;2023-05-07T09:10:16;13.85;;;9.68;;
32236;SDS011;18726;44.732;10.550;2023-05-07T09:13:21;13.88;;;9.90;;
32236;SDS011;18726;44.732;10.550;2023-05-07T09:16:25;13.07;;;7.88;;
32236;SDS011;18726;44.732;10.550;2023-05-07T09:19:30;8.77;;;7.40;;
32236;SDS011;18726;44.732;10.550;2023-05-07T09:22:37;8.70;;;7.90;;
32236;SDS011;18726;44.732;10.550;2023-05-07T09:25:45;12.38;;;11.27;;
32236;SDS011;18726;44.732;10.550;2023-05-07T09:28:56;13.10;;;9.32;;
32236;SDS011;18726;44.732;10.550;2023-05-07T09:32:04;15.13;;;8.00;;
32236;SDS011;18726;44.732;10.550;2023-05-07T09:35:16;19.17;;;10.57;;
32236;SDS011;18726;44.732;10.550;2023-05-07T09:38:23;8.80;;;8.00;;
32236;SDS011;18726;44.732;10.550;2023-05-07T09:41:32;7.88;;;7.07;;
32236;SDS011;18726;44.732;10.550;2023-05-07T09:44:50;7.93;;;6.05;;
32236;SDS011;18726;44.732;10.550;2023-05-07T09:47:57;7.50;;;6.70;;
32236;SDS011;18726;44.732;10.550;2023-05-07T09:51:03;11.07;;;8.98;;
32236;SDS011;18726;44.732;10.550;2023-05-07T09:54:15;10.10;;;9.10;;
32236;SDS011;18726;44.732;10.550;2023-05-07T09:57:22;8.75;;;7.95;;
32236;SDS011;18726;44.732;10.550;2023-05-07T10:00:30;9.68;;;8.85;;
32236;SDS011;18726;44.732;10.550;2023-05-07T10:03:43;10.05;;;8.82;;
32236;SDS011;18726;44.732;10.550;2023-05-07T10:06:47;16.00;;;9.13;;
32236;SDS011;18726;44.732;10.550;2023-05-07T10:09:52;15.88;;;13.10;;
32236;SDS011;18726;44.732;10.550;2023-05-07T10:13:06;8.55;;;7.75;;
32236;SDS011;18726;44.732;10.550;2023-05-07T10:16:16;11.37;;;8.57;;
32236;SDS011;18726;44.732;10.550;2023-05-07T10:19:24;14.75;;;13.27;;
32236;SDS011;18726;44.732;10.550;2023-05-07T10:22:32;14.98;;;13.38;;
32236;SDS011;18726;44.732;10.550;2023-05-07T10:25:46;14.48;;;13.10;;
32236;SDS011;18726;44.732;10.550;2023-05-07T10:28:59;14.05;;;11.38;;
32236;SDS011;18726;44.732;10.550;2023-05-07T10:35:51;13.35;;;9.85;;
32236;SDS011;18726;44.732;10.550;2023-05-07T10:38:58;10.90;;;9.80;;
32236;SDS011;18726;44.732;10.550;2023-05-07T10:42:09;9.20;;;8.40;;
32236;SDS011;18726;44.732;10.550;2023-05-07T10:45:15;14.48;;;13.02;;
32236;SDS011;18726;44.732;10.550;2023-05-07T10:48:23;14.48;;;11.88;;
32236;SDS011;18726;44.732;10.550;2023-05-07T10:51:32;11.65;;;10.40;;
32236;SDS011;18726;44.732;10.550;2023-05-07T10:54:44;11.93;;;10.88;;
32236;SDS011;18726;44.732;10.550;2023-05-07T10:57:50;12.80;;;11.70;;
32236;SDS011;18726;44.732;10.550;2023-05-07T11:01:01;8.70;;;7.38;;
32236;SDS011;18726;44.732;10.550;2023-05-07T11:07:24;6.97;;;6.38;;
32236;SDS011;18726;44.732;10.550;2023-05-07T11:10:56;13.07;;;11.68;;
32236;SDS011;18726;44.732;10.550;2023-05-07T11:14:10;11.70;;;10.55;;
32236;SDS011;18726;44.732;10.550;2023-05-07T11:17:22;10.45;;;9.45;;
32236;SDS011;18726;44.732;10.550;2023-05-07T11:21:07;9.00;;;8.02;;
32236;SDS011;18726;44.732;10.550;2023-05-07T11:24:12;8.13;;;7.10;;
32236;SDS011;18726;44.732;10.550;2023-05-07T11:27:25;8.38;;;7.40;;
32236;SDS011;18726;44.732;10.550;2023-05-07T11:30:32;9.30;;;8.40;;
32236;SDS011;18726;44.732;10.550;2023-05-07T11:33:37;10.25;;;9.10;;
32236;SDS011;18726;44.732;10.550;2023-05-07T11:36:44;14.88;;;13.45;;
32236;SDS011;18726;44.732;10.550;2023-05-07T11:40:01;9.38;;;8.40;;
32236;SDS011;18726;44.732;10.550;2023-05-07T11:43:10;8.63;;;7.32;;
32236;SDS011;18726;44.732;10.550;2023-05-07T11:46:14;7.97;;;7.05;;
32236;SDS011;18726;44.732;10.550;2023-05-07T11:49:18;12.70;;;7.07;;
32236;SDS011;18726;44.732;10.550;2023-05-07T11:52:23;14.50;;;7.55;;
32236;SDS011;18726;44.732;10.550;2023-05-07T11:55:27;12.95;;;8.05;;
32236;SDS011;18726;44.732;10.550;2023-05-07T11:58:31;7.32;;;5.50;;
32236;SDS011;18726;44.732;10.550;2023-05-07T12:01:35;8.32;;;4.93;;
32236;SDS011;18726;44.732;10.550;2023-05-07T12:04:40;8.52;;;6.72;;
32236;SDS011;18726;44.732;10.550;2023-05-07T12:07:44;8.70;;;6.95;;
32236;SDS011;18726;44.732;10.550;2023-05-07T12:10:49;10.10;;;9.13;;
32236;SDS011;18726;44.732;10.550;2023-05-07T12:13:54;11.23;;;10.10;;
32236;SDS011;18726;44.732;10.550;2023-05-07T12:17:01;8.95;;;8.15;;
32236;SDS011;18726;44.732;10.550;2023-05-07T12:20:06;10.05;;;9.05;;
32236;SDS011;18726;44.732;10.550;2023-05-07T12:23:10;13.25;;;9.35;;
32236;SDS011;18726;44.732;10.550;2023-05-07T12:26:15;9.07;;;8.18;;
32236;SDS011;18726;44.732;10.550;2023-05-07T12:29:22;12.38;;;10.63;;
32236;SDS011;18726;44.732;10.550;2023-05-07T12:32:26;10.98;;;9.65;;
32236;SDS011;18726;44.732;10.550;2023-05-07T12:35:31;11.88;;;10.38;;
32236;SDS011;18726;44.732;10.550;2023-05-07T12:38:39;14.55;;;12.98;;
32236;SDS011;18726;44.732;10.550;2023-05-07T12:41:53;13.35;;;11.35;;
32236;SDS011;18726;44.732;10.550;2023-05-07T12:44:58;17.30;;;7.82;;
32236;SDS011;18726;44.732;10.550;2023-05-07T12:48:02;9.77;;;8.88;;
32236;SDS011;18726;44.732;10.550;2023-05-07T12:51:06;13.23;;;11.70;;
32236;SDS011;18726;44.732;10.550;2023-05-07T12:54:12;11.70;;;10.50;;
32236;SDS011;18726;44.732;10.550;2023-05-07T12:57:15;15.45;;;11.82;;
32236;SDS011;18726;44.732;10.550;2023-05-07T13:00:42;12.15;;;10.88;;
32236;SDS011;18726;44.732;10.550;2023-05-07T13:03:48;16.40;;;11.65;;
32236;SDS011;18726;44.732;10.550;2023-05-07T13:06:53;8.70;;;7.80;;
32236;SDS011;18726;44.732;10.550;2023-05-07T13:09:57;8.90;;;8.07;;
32236;SDS011;18726;44.732;10.550;2023-05-07T13:13:00;8.05;;;7.25;;
32236;SDS011;18726;44.732;10.550;2023-05-07T13:16:04;9.38;;;8.48;;
32236;SDS011;18726;44.732;10.550;2023-05-07T13:19:09;10.10;;;9.20;;
32236;SDS011;18726;44.732;10.550;2023-05-07T13:22:14;11.90;;;8.48;;
32236;SDS011;18726;44.732;10.550;2023-05-07T13:25:17;10.32;;;6.90;;
32236;SDS011;18726;44.732;10.550;2023-05-07T13:28:22;10.98;;;9.00;;
32236;SDS011;18726;44.732;10.550;2023-05-07T13:31:29;10.40;;;9.18;;
32236;SDS011;18726;44.732;10.550;2023-05-07T13:34:32;7.88;;;7.18;;
32236;SDS011;18726;44.732;10.550;2023-05-07T13:37:36;11.27;;;10.07;;
32236;SDS011;18726;44.732;10.550;2023-05-07T13:40:39;12.10;;;10.40;;
32236;SDS011;18726;44.732;10.550;2023-05-07T13:43:43;10.70;;;9.60;;
32236;SDS011;18726;44.732;10.550;2023-05-07T13:46:46;12.18;;;9.48;;
32236;SDS011;18726;44.732;10.550;2023-05-07T13:49:50;15.02;;;11.40;;
32236;SDS011;18726;44.732;10.550;2023-05-07T13:52:53;11.15;;;10.05;;
32236;SDS011;18726;44.732;10.550;2023-05-07T13:55:57;11.60;;;10.40;;
32236;SDS011;18726;44.732;10.550;2023-05-07T13:59:00;13.18;;;11.88;;
32236;SDS011;18726;44.732;10.550;2023-05-07T14:02:04;12.85;;;10.85;;
32236;SDS011;18726;44.732;10.550;2023-05-07T14:05:08;11.55;;;10.35;;
32236;SDS011;18726;44.732;10.550;2023-05-07T14:08:12;10.20;;;9.20;;
32236;SDS011;18726;44.732;10.550;2023-05-07T14:11:17;12.27;;;11.07;;
32236;SDS011;18726;44.732;10.550;2023-05-07T14:14:21;11.90;;;7.32;;
32236;SDS011;18726;44.732;10.550;2023-05-07T14:17:24;12.32;;;9.55;;
32236;SDS011;18726;44.732;10.550;2023-05-07T14:20:29;10.70;;;9.40;;
32236;SDS011;18726;44.732;10.550;2023-05-07T14:23:34;9.27;;;8.38;;
32236;SDS011;18726;44.732;10.550;2023-05-07T14:26:38;10.15;;;7.88;;
32236;SDS011;18726;44.732;10.550;2023-05-07T14:29:42;8.30;;;7.05;;
32236;SDS011;18726;44.732;10.550;2023-05-07T14:32:46;11.98;;;7.43;;
32236;SDS011;18726;44.732;10.550;2023-05-07T14:35:49;10.25;;;9.35;;
32236;SDS011;18726;44.732;10.550;2023-05-07T14:38:54;8.00;;;7.28;;
32236;SDS011;18726;44.732;10.550;2023-05-07T14:41:57;6.95;;;6.35;;
32236;SDS011;18726;44.732;10.550;2023-05-07T14:45:01;7.65;;;6.70;;
32236;SDS011;18726;44.732;10.550;2023-05-07T14:48:05;6.53;;;5.72;;
32236;SDS011;18726;44.732;10.550;2023-05-07T14:51:08;7.93;;;7.18;;
32236;SDS011;18726;44.732;10.550;2023-05-07T14:54:13;8.48;;;7.20;;
32236;SDS011;18726;44.732;10.550;2023-05-07T14:57:17;6.85;;;6.18;;
32236;SDS011;18726;44.732;10.550;2023-05-07T15:00:21;17.73;;;6.57;;
32236;SDS011;18726;44.732;10.550;2023-05-07T15:03:25;8.18;;;6.82;;
32236;SDS011;18726;44.732;10.550;2023-05-07T15:06:29;10.15;;;6.40;;
32236;SDS011;18726;44.732;10.550;2023-05-07T15:09:33;7.43;;;6.65;;
32236;SDS011;18726;44.732;10.550;2023-05-07T15:12:36;6.68;;;6.07;;
32236;SDS011;18726;44.732;10.550;2023-05-07T15:15:40;6.65;;;6.05;;
32236;SDS011;18726;44.732;10.550;2023-05-07T15:18:45;8.32;;;6.25;;
32236;SDS011;18726;44.732;10.550;2023-05-07T15:21:48;8.88;;;7.00;;
32236;SDS011;18726;44.732;10.550;2023-05-07T15:24:52;6.60;;;6.00;;
32236;SDS011;18726;44.732;10.550;2023-05-07T15:27:58;7.35;;;6.65;;
32236;SDS011;18726;44.732;10.550;2023-05-07T15:31:02;8.98;;;8.15;;
32236;SDS011;18726;44.732;10.550;2023-05-07T15:34:06;10.32;;;7.22;;
32236;SDS011;18726;44.732;10.550;2023-05-07T15:37:10;6.65;;;6.05;;
32236;SDS011;18726;44.732;10.550;2023-05-07T15:40:13;6.47;;;5.90;;
32236;SDS011;18726;44.732;10.550;2023-05-07T15:43:17;7.22;;;6.38;;
32236;SDS011;18726;44.732;10.550;2023-05-07T15:46:21;8.00;;;5.88;;
32236;SDS011;18726;44.732;10.550;2023-05-07T15:49:27;7.85;;;6.30;;
32236;SDS011;18726;44.732;10.550;2023-05-07T15:52:30;7.15;;;6.45;;
32236;SDS011;18726;44.732;10.550;2023-05-07T15:55:34;10.68;;;6.18;;
32236;SDS011;18726;44.732;10.550;2023-05-07T15:58:37;7.10;;;6.47;;
32236;SDS011;18726;44.732;10.550;2023-05-07T16:01:41;9.10;;;6.60;;
32236;SDS011;18726;44.732;10.550;2023-05-07T16:04:45;6.95;;;6.38;;
32236;SDS011;18726;44.732;10.550;2023-05-07T16:07:50;6.95;;;6.35;;
32236;SDS011;18726;44.732;10.550;2023-05-07T16:10:54;7.07;;;6.47;;
32236;SDS011;18726;44.732;10.550;2023-05-07T16:13:58;8.45;;;7.65;;
32236;SDS011;18726;44.732;10.550;2023-05-07T16:17:03;12.48;;;8.23;;
32236;SDS011;18726;44.732;10.550;2023-05-07T16:20:07;11.20;;;8.05;;
32236;SDS011;18726;44.732;10.550;2023-05-07T16:23:12;8.02;;;7.25;;
32236;SDS011;18726;44.732;10.550;2023-05-07T16:26:16;11.38;;;7.45;;
32236;SDS011;18726;44.732;10.550;2023-05-07T16:29:20;9.88;;;6.85;;
32236;SDS011;18726;44.732;10.550;2023-05-07T16:32:25;10.80;;;6.05;;
32236;SDS011;18726;44.732;10.550;2023-05-07T16:35:30;6.78;;;6.15;;
32236;SDS011;18726;44.732;10.550;2023-05-07T16:38:33;10.93;;;6.38;;
32236;SDS011;18726;44.732;10.550;2023-05-07T16:41:37;8.55;;;6.55;;
32236;SDS011;18726;44.732;10.550;2023-05-07T16:44:41;12.60;;;6.93;;
32236;SDS011;18726;44.732;10.550;2023-05-07T16:47:44;7.60;;;6.93;;
32236;SDS011;18726;44.732;10.550;2023-05-07T16:50:48;7.65;;;6.95;;
32236;SDS011;18726;44.732;10.550;2023-05-07T16:53:51;8.45;;;6.75;;
32236;SDS011;18726;44.732;10.550;2023-05-07T16:56:54;8.00;;;6.47;;
32236;SDS011;18726;44.732;10.550;2023-05-07T16:59:59;6.05;;;5.55;;
32236;SDS011;18726;44.732;10.550;2023-05-07T17:03:03;9.60;;;6.18;;
32236;SDS011;18726;44.732;10.550;2023-05-07T17:06:07;6.55;;;5.85;;
32236;SDS011;18726;44.732;10.550;2023-05-07T17:09:16;7.28;;;6.22;;
32236;SDS011;18726;44.732;10.550;2023-05-07T17:12:19;10.52;;;6.03;;
32236;SDS011;18726;44.732;10.550;2023-05-07T17:15:23;5.60;;;5.10;;
32236;SDS011;18726;44.732;10.550;2023-05-07T17:18:27;5.57;;;5.18;;
32236;SDS011;18726;44.732;10.550;2023-05-07T17:21:30;6.25;;;5.75;;
32236;SDS011;18726;44.732;10.550;2023-05-07T17:24:34;8.35;;;5.85;;
32236;SDS011;18726;44.732;10.550;2023-05-07T17:27:38;8.25;;;6.22;;
32236;SDS011;18726;44.732;10.550;2023-05-07T17:30:42;10.90;;;6.35;;
32236;SDS011;18726;44.732;10.550;2023-05-07T17:33:46;6.63;;;6.03;;
32236;SDS011;18726;44.732;10.550;2023-05-07T17:36:50;7.40;;;6.70;;
32236;SDS011;18726;44.732;10.550;2023-05-07T17:39:54;9.02;;;7.05;;
32236;SDS011;18726;44.732;10.550;2023-05-07T17:42:58;10.80;;;7.22;;
32236;SDS011;18726;44.732;10.550;2023-05-07T17:46:02;9.73;;;6.70;;
32236;SDS011;18726;44.732;10.550;2023-05-07T17:49:05;7.00;;;6.40;;
32236;SDS011;18726;44.732;10.550;2023-05-07T17:52:09;7.43;;;6.50;;
32236;SDS011;18726;44.732;10.550;2023-05-07T17:55:14;9.15;;;7.57;;
32236;SDS011;18726;44.732;10.550;2023-05-07T17:58:18;7.35;;;6.63;;
32236;SDS011;18726;44.732;10.550;2023-05-07T18:01:22;8.10;;;7.30;;
32236;SDS011;18726;44.732;10.550;2023-05-07T18:04:26;8.82;;;7.43;;
32236;SDS011;18726;44.732;10.550;2023-05-07T18:07:30;8.60;;;6.65;;
32236;SDS011;18726;44.732;10.550;2023-05-07T18:10:33;9.18;;;6.90;;